createdAt,value
2023-01-18T00:01:02.645Z,97.20
2023-01-18T00:03:33.340Z,97.20
2023-01-18T00:06:01.685Z,97.20
2023-01-18T00:08:32.310Z,97.20
2023-01-18T00:11:06.717Z,97.20
2023-01-18T00:13:33.585Z,97.20
2023-01-18T00:16:07.345Z,97.20
2023-01-18T00:18:36.094Z,97.30
2023-01-18T00:21:04.154Z,97.30
2023-01-18T00:23:30.902Z,97.40
2023-01-18T00:26:01.049Z,97.30
2023-01-18T00:28:28.021Z,97.20
2023-01-18T00:30:55.597Z,97.20
2023-01-18T00:33:22.292Z,97.20
2023-01-18T00:35:59.914Z,97.20
2023-01-18T00:38:27.064Z,97.20
2023-01-18T00:40:53.855Z,97.20
2023-01-18T00:43:40.960Z,97.10
2023-01-18T00:46:10.878Z,97.20
2023-01-18T00:48:38.994Z,97.30
2023-01-18T00:51:07.037Z,97.30
2023-01-18T00:53:33.719Z,97.40
2023-01-18T00:56:00.531Z,97.40
2023-01-18T00:58:28.542Z,97.30
2023-01-18T01:00:55.403Z,97.30
2023-01-18T01:03:22.415Z,97.30
2023-01-18T01:06:07.787Z,97.50
2023-01-18T01:08:34.663Z,97.50
2023-01-18T01:11:06.014Z,97.30
2023-01-18T01:13:51.331Z,97.20
2023-01-18T01:16:36.608Z,97.20
2023-01-18T01:19:22.072Z,97.20
2023-01-18T01:22:07.405Z,97.30
2023-01-18T01:24:52.543Z,97.20
2023-01-18T01:27:19.257Z,97.10
2023-01-18T01:29:46.011Z,97.10
2023-01-18T01:32:13.202Z,97.20
2023-01-18T01:34:40.110Z,97.20
2023-01-18T01:37:06.839Z,97.30
2023-01-18T01:39:33.644Z,97.30
2023-01-18T01:42:00.380Z,97.30
2023-01-18T01:44:34.227Z,97.40
2023-01-18T01:47:33.555Z,97.30
2023-01-18T01:50:03.318Z,97.30
2023-01-18T01:52:34.849Z,97.50
2023-01-18T01:55:04.742Z,97.50
2023-01-18T01:57:34.184Z,97.40
2023-01-18T02:00:02.818Z,97.40
2023-01-18T02:02:30.758Z,97.30
2023-01-18T02:04:58.561Z,97.20
2023-01-18T02:07:28.919Z,97.20
2023-01-18T02:09:57.340Z,97.30
2023-01-18T02:12:24.501Z,97.20
2023-01-18T02:14:51.796Z,97.20
2023-01-18T02:17:41.825Z,97.20
2023-01-18T02:20:27.152Z,97.20
2023-01-18T02:23:03.190Z,97.40
2023-01-18T02:26:05.254Z,97.40
2023-01-18T02:28:33.570Z,97.30
2023-01-18T02:31:10.425Z,97.30
2023-01-18T02:33:40.304Z,97.20
2023-01-18T02:36:07.088Z,97.30
2023-01-18T02:38:33.764Z,97.70
2023-01-18T02:41:18.564Z,97.40
2023-01-18T02:44:03.941Z,97.40
2023-01-18T02:46:33.867Z,97.30
2023-01-18T02:49:06.541Z,97.30
2023-01-18T02:51:33.341Z,97.20
2023-01-18T02:54:00.437Z,97.30
2023-01-18T02:56:39.637Z,97.40
2023-01-18T02:59:23.853Z,97.50
2023-01-18T03:01:52.092Z,97.50
2023-01-18T03:04:22.058Z,97.50
2023-01-18T03:06:51.586Z,97.40
2023-01-18T03:09:21.298Z,97.40
2023-01-18T03:11:53.844Z,97.50
2023-01-18T03:14:33.095Z,97.40
2023-01-18T03:17:07.173Z,97.40
2023-01-18T03:19:59.472Z,97.50
2023-01-18T03:22:46.052Z,97.60
2023-01-18T03:25:14.559Z,97.40
2023-01-18T03:28:00.908Z,97.30
2023-01-18T03:30:47.869Z,97.20
2023-01-18T03:33:33.356Z,97.30
2023-01-18T03:36:00.732Z,97.30
2023-01-18T03:38:28.216Z,97.20
2023-01-18T03:40:55.255Z,97.20
2023-01-18T03:43:22.771Z,97.30
2023-01-18T03:45:49.664Z,97.40
2023-01-18T03:48:16.835Z,97.30
2023-01-18T03:50:46.327Z,97.20
2023-01-18T03:53:14.843Z,97.20
2023-01-18T03:55:44.469Z,97.10
2023-01-18T03:58:12.204Z,97.10
2023-01-18T04:00:39.727Z,97.20
2023-01-18T04:03:06.964Z,97.30
2023-01-18T04:05:34.411Z,97.20
2023-01-18T04:08:01.166Z,97.20
2023-01-18T04:10:27.866Z,97.20
2023-01-18T04:12:54.603Z,97.20
2023-01-18T04:15:21.359Z,97.20
2023-01-18T04:17:53.169Z,97.40
2023-01-18T04:20:20.036Z,97.50
2023-01-18T04:22:51.397Z,97.50
2023-01-18T04:25:18.078Z,97.40
2023-01-18T04:27:44.837Z,97.30
2023-01-18T04:30:11.989Z,97.30
2023-01-18T04:32:40.027Z,97.30
2023-01-18T04:35:06.990Z,97.30
2023-01-18T04:37:34.104Z,97.20
2023-01-18T04:40:01.026Z,97.20
2023-01-18T04:42:27.865Z,97.30
2023-01-18T04:44:54.662Z,97.20
2023-01-18T04:47:21.405Z,97.20
2023-01-18T04:49:48.189Z,97.10
2023-01-18T04:52:14.948Z,97.20
2023-01-18T04:54:41.693Z,97.30
2023-01-18T04:57:08.448Z,97.30
2023-01-18T04:59:39.382Z,97.30
2023-01-18T05:02:06.147Z,97.30
2023-01-18T05:04:32.941Z,97.20
2023-01-18T05:07:02.296Z,97.20
2023-01-18T05:09:29.494Z,97.20
2023-01-18T05:11:56.218Z,97.30
2023-01-18T05:14:22.937Z,97.40
2023-01-18T05:16:49.633Z,97.30
2023-01-18T05:19:16.427Z,97.30
2023-01-18T05:21:43.137Z,97.40
2023-01-18T05:24:09.846Z,97.50
2023-01-18T05:26:36.703Z,97.50
2023-01-18T05:29:03.572Z,97.40
2023-01-18T05:31:31.132Z,97.30
2023-01-18T05:33:57.987Z,97.30
2023-01-18T05:36:24.763Z,97.20
2023-01-18T05:38:51.452Z,97.40
2023-01-18T05:41:18.612Z,97.40
2023-01-18T05:43:45.379Z,97.50
2023-01-18T05:46:12.174Z,97.40
2023-01-18T05:48:38.976Z,97.30
2023-01-18T05:51:09.552Z,97.20
2023-01-18T05:53:36.272Z,97.30
2023-01-18T05:56:05.248Z,97.30
2023-01-18T05:58:32.427Z,97.20
2023-01-18T06:00:59.178Z,97.30
2023-01-18T06:03:26.089Z,97.30
2023-01-18T06:05:53.201Z,97.30
2023-01-18T06:08:20.683Z,97.20
2023-01-18T06:10:54.355Z,97.20
2023-01-18T06:13:24.334Z,97.20
2023-01-18T06:15:51.972Z,97.20
2023-01-18T06:18:18.838Z,97.20
2023-01-18T06:20:45.593Z,97.20
2023-01-18T06:23:12.478Z,97.20
2023-01-18T06:25:39.242Z,97.20
2023-01-18T06:28:06.377Z,97.10
2023-01-18T06:30:34.368Z,97.20
2023-01-18T06:33:06.709Z,97.20
2023-01-18T06:35:34.317Z,97.20
2023-01-18T06:38:01.163Z,97.20
2023-01-18T06:40:27.933Z,97.20
2023-01-18T06:42:54.619Z,97.20
2023-01-18T06:45:22.200Z,97.20
2023-01-18T06:47:49.579Z,97.20
2023-01-18T06:50:16.804Z,97.10
2023-01-18T06:52:44.035Z,97.20
2023-01-18T06:55:11.597Z,97.20
2023-01-18T06:57:38.342Z,97.10
2023-01-18T07:00:06.421Z,97.20
2023-01-18T07:02:33.560Z,97.20
2023-01-18T07:05:00.258Z,97.40
2023-01-18T07:07:27.240Z,97.10
2023-01-18T07:09:53.978Z,97.10
2023-01-18T07:12:20.755Z,97.00
2023-01-18T07:14:47.544Z,97.10
2023-01-18T07:17:14.559Z,97.10
2023-01-18T07:19:41.269Z,97.20
2023-01-18T07:22:08.054Z,97.40
2023-01-18T07:24:34.841Z,97.40
2023-01-18T07:27:01.552Z,97.40
2023-01-18T07:29:28.235Z,97.40
2023-01-18T07:31:55.048Z,97.40
2023-01-18T07:34:21.774Z,97.50
2023-01-18T07:36:48.446Z,97.40
2023-01-18T07:39:15.434Z,97.40
2023-01-18T07:41:45.269Z,97.30
2023-01-18T07:44:12.554Z,97.30
2023-01-18T07:46:39.493Z,97.20
2023-01-18T07:49:06.307Z,97.30
2023-01-18T07:51:33.502Z,97.60
2023-01-18T07:54:00.390Z,97.40
2023-01-18T07:56:29.162Z,97.40
2023-01-18T07:58:56.057Z,97.40
2023-01-18T08:01:23.548Z,97.40
2023-01-18T08:03:50.837Z,97.50
2023-01-18T08:06:22.319Z,97.50
2023-01-18T08:08:49.179Z,97.50
2023-01-18T08:11:15.934Z,97.40
2023-01-18T08:13:42.874Z,97.30
2023-01-18T08:16:11.889Z,97.30
2023-01-18T08:18:39.259Z,97.20
2023-01-18T08:21:08.242Z,97.10
2023-01-18T08:23:35.048Z,97.10
2023-01-18T08:26:02.502Z,97.00
2023-01-18T08:28:29.212Z,97.10
2023-01-18T08:31:04.677Z,97.00
2023-01-18T08:33:31.407Z,97.20
2023-01-18T08:35:58.325Z,97.30
2023-01-18T08:38:25.146Z,97.30
2023-01-18T08:40:51.844Z,97.40
2023-01-18T08:43:18.575Z,97.40
2023-01-18T08:45:49.989Z,97.30
2023-01-18T08:48:16.676Z,97.30
2023-01-18T08:50:45.925Z,97.30
2023-01-18T08:53:13.521Z,97.20
2023-01-18T08:55:40.572Z,97.20
2023-01-18T08:58:07.487Z,97.20
2023-01-18T09:00:34.238Z,97.20
2023-01-18T09:03:02.913Z,97.20
2023-01-18T09:05:30.153Z,97.10
2023-01-18T09:07:58.036Z,97.10
2023-01-18T09:10:24.808Z,97.10
2023-01-18T09:12:53.634Z,97.00
2023-01-18T09:15:20.534Z,97.10
2023-01-18T09:17:49.160Z,96.90
2023-01-18T09:20:18.638Z,96.50
2023-01-18T09:22:48.052Z,96.60
2023-01-18T09:25:14.992Z,96.60
2023-01-18T09:27:42.641Z,96.70
2023-01-18T09:30:09.947Z,96.80
2023-01-18T09:32:36.744Z,96.90
2023-01-18T09:35:03.810Z,96.90
2023-01-18T09:37:31.553Z,96.90
2023-01-18T09:40:00.250Z,96.80
2023-01-18T09:42:37.941Z,96.80
2023-01-18T09:45:05.007Z,96.70
2023-01-18T09:47:34.468Z,96.80
2023-01-18T09:50:21.496Z,96.80
2023-01-18T09:52:56.849Z,96.80
2023-01-18T09:55:42.286Z,96.60
2023-01-18T09:58:35.455Z,96.80
2023-01-18T10:01:09.433Z,96.80
2023-01-18T10:03:45.006Z,96.80
2023-01-18T10:06:15.764Z,96.90
2023-01-18T10:08:42.526Z,96.90
2023-01-18T10:11:11.509Z,96.70
2023-01-18T10:13:53.835Z,96.80
2023-01-18T10:16:20.790Z,96.80
2023-01-18T10:18:48.955Z,96.80
2023-01-18T10:21:22.526Z,96.80
2023-01-18T10:23:57.429Z,96.60
2023-01-18T10:26:31.120Z,96.50
2023-01-18T10:28:59.085Z,96.30
2023-01-18T10:31:32.053Z,96.50
2023-01-18T10:33:59.972Z,97.00
2023-01-18T10:36:33.391Z,97.10
2023-01-18T10:39:01.180Z,97.10
2023-01-18T10:41:31.056Z,96.90
2023-01-18T10:43:57.918Z,96.90
2023-01-18T10:46:26.327Z,96.90
2023-01-18T10:48:53.763Z,96.90
2023-01-18T10:51:29.500Z,96.80
2023-01-18T10:53:56.419Z,96.70
2023-01-18T10:56:26.631Z,96.70
2023-01-18T10:58:53.361Z,96.80
2023-01-18T11:01:22.540Z,96.90
2023-01-18T11:03:51.202Z,96.90
2023-01-18T11:06:20.575Z,96.90
2023-01-18T11:08:48.631Z,97.00
2023-01-18T11:11:17.567Z,97.10
2023-01-18T11:13:50.596Z,97.10
2023-01-18T11:16:18.639Z,97.20
2023-01-18T11:19:01.988Z,97.20
2023-01-18T11:21:41.120Z,97.30
2023-01-18T11:24:09.659Z,97.30
2023-01-18T11:26:50.145Z,97.20
2023-01-18T11:29:17.544Z,97.20
2023-01-18T11:31:45.770Z,97.10
2023-01-18T11:34:29.580Z,97.20
2023-01-18T11:36:57.360Z,97.40
2023-01-18T11:39:31.894Z,97.30
2023-01-18T11:42:10.760Z,97.50
2023-01-18T11:44:40.259Z,97.50
2023-01-18T11:47:10.657Z,97.50
2023-01-18T11:49:42.378Z,97.40
2023-01-18T11:52:27.863Z,97.20
2023-01-18T11:54:58.503Z,97.10
2023-01-18T11:57:25.295Z,97.10
2023-01-18T11:59:52.079Z,97.10
2023-01-18T12:02:31.359Z,97.10
2023-01-18T12:05:04.251Z,97.10
2023-01-18T12:07:33.838Z,97.10
2023-01-18T12:10:01.063Z,97.10
2023-01-18T12:12:44.553Z,97.10
2023-01-18T12:15:30.199Z,97.40
2023-01-18T12:18:20.486Z,97.10
2023-01-18T12:20:50.783Z,97.10
2023-01-18T12:23:35.872Z,97.20
2023-01-18T12:26:12.108Z,97.50
2023-01-18T12:28:57.852Z,97.20
2023-01-18T12:31:33.474Z,97.10
2023-01-18T12:34:03.463Z,97.20
2023-01-18T12:36:36.438Z,97.20
2023-01-18T12:39:08.102Z,97.20
2023-01-18T12:41:43.426Z,97.30
2023-01-18T12:44:13.219Z,97.20
2023-01-18T12:46:40.880Z,97.10
2023-01-18T12:49:21.946Z,97.10
2023-01-18T12:51:50.711Z,97.20
2023-01-18T12:54:27.690Z,97.20
2023-01-18T12:56:56.354Z,97.20
2023-01-18T12:59:46.552Z,97.20
2023-01-18T13:02:21.397Z,97.10
2023-01-18T13:04:52.809Z,97.10
2023-01-18T13:07:22.137Z,97.20
2023-01-18T13:09:49.683Z,97.30
2023-01-18T13:12:17.014Z,97.30
2023-01-18T13:14:46.376Z,97.20
2023-01-18T13:17:20.048Z,97.20
2023-01-18T13:19:54.845Z,97.30
2023-01-18T13:22:31.812Z,97.20
2023-01-18T13:25:01.540Z,97.30
2023-01-18T13:27:28.340Z,97.30
2023-01-18T13:30:06.317Z,97.20
2023-01-18T13:32:37.822Z,97.30
2023-01-18T13:35:20.662Z,97.20
2023-01-18T13:37:50.231Z,97.30
2023-01-18T13:40:24.090Z,97.20
2023-01-18T13:42:51.063Z,97.20
2023-01-18T13:45:19.803Z,97.20
2023-01-18T13:47:48.109Z,97.30
2023-01-18T13:50:45.317Z,97.30
2023-01-18T13:53:14.840Z,97.20
2023-01-18T13:56:01.876Z,97.20
2023-01-18T13:58:29.837Z,97.30
2023-01-18T14:00:58.617Z,97.20
2023-01-18T14:03:27.055Z,97.20
2023-01-18T14:05:54.417Z,97.20
2023-01-18T14:08:27.602Z,97.20
2023-01-18T14:10:57.295Z,97.20
2023-01-18T14:13:53.154Z,97.20
2023-01-18T14:16:22.836Z,97.20
2023-01-18T14:19:09.818Z,97.30
2023-01-18T14:21:39.608Z,97.10
2023-01-18T14:24:12.360Z,97.10
2023-01-18T14:26:40.325Z,97.20
2023-01-18T14:29:10.872Z,97.10
2023-01-18T14:31:39.317Z,97.20
2023-01-18T14:34:25.204Z,97.20
2023-01-18T14:36:52.574Z,97.20
2023-01-18T14:39:21.679Z,97.20
2023-01-18T14:41:51.278Z,97.20
2023-01-18T14:44:22.502Z,97.20
2023-01-18T14:46:51.192Z,97.30
2023-01-18T14:49:22.162Z,97.30
2023-01-18T14:51:49.911Z,97.20
2023-01-18T14:54:18.292Z,97.20
2023-01-18T14:56:45.043Z,97.20
2023-01-18T14:59:27.617Z,97.20
2023-01-18T15:01:55.910Z,97.30
2023-01-18T15:04:26.947Z,97.30
2023-01-18T15:06:55.507Z,97.30
2023-01-18T15:09:23.565Z,97.20
2023-01-18T15:11:52.282Z,97.20
2023-01-18T15:14:26.820Z,97.20
2023-01-18T15:16:55.160Z,97.30
2023-01-18T15:19:42.323Z,97.30
2023-01-18T15:22:16.427Z,97.30
2023-01-18T15:24:44.194Z,97.30
2023-01-18T15:27:18.241Z,97.40
2023-01-18T15:29:49.005Z,97.30
2023-01-18T15:32:17.701Z,97.20
2023-01-18T15:34:45.314Z,97.20
2023-01-18T15:37:14.992Z,97.10
2023-01-18T15:39:56.808Z,97.20
2023-01-18T15:42:38.774Z,97.40
2023-01-18T15:45:06.971Z,97.20
2023-01-18T15:47:38.241Z,97.20
2023-01-18T15:50:06.398Z,97.30
2023-01-18T15:52:45.202Z,97.50
2023-01-18T15:55:21.320Z,97.10
2023-01-18T15:57:54.376Z,97.10
2023-01-18T16:00:25.789Z,97.00
2023-01-18T16:02:53.461Z,97.10
2023-01-18T16:05:21.624Z,97.10
2023-01-18T16:07:50.226Z,97.20
2023-01-18T16:10:18.202Z,97.20
2023-01-18T16:12:45.409Z,97.20
2023-01-18T16:15:28.618Z,97.00
2023-01-18T16:18:01.848Z,96.90
2023-01-18T16:20:31.276Z,96.90
2023-01-18T16:23:06.162Z,96.90
2023-01-18T16:25:32.871Z,97.00
2023-01-18T16:28:00.292Z,96.90
2023-01-18T16:30:33.472Z,97.00
2023-01-18T16:33:09.381Z,97.00
2023-01-18T16:35:39.825Z,97.10
2023-01-18T16:38:11.412Z,97.10
2023-01-18T16:40:39.557Z,97.10
2023-01-18T16:43:26.706Z,97.00
2023-01-18T16:45:55.413Z,97.00
2023-01-18T16:48:23.159Z,97.10
2023-01-18T16:50:50.135Z,97.00
2023-01-18T16:53:17.728Z,97.00
2023-01-18T16:55:45.014Z,97.00
2023-01-18T16:58:15.271Z,96.90
2023-01-18T17:00:48.319Z,96.90
2023-01-18T17:03:15.016Z,96.90
2023-01-18T17:05:41.771Z,96.90
2023-01-18T17:08:15.158Z,96.90
2023-01-18T17:10:46.395Z,96.90
2023-01-18T17:13:13.128Z,96.90
2023-01-18T17:15:43.999Z,96.90
2023-01-18T17:18:22.482Z,96.90
2023-01-18T17:20:49.964Z,96.90
2023-01-18T17:23:17.695Z,96.80
2023-01-18T17:25:44.517Z,96.90
2023-01-18T17:28:15.710Z,96.90
2023-01-18T17:30:43.716Z,96.90
2023-01-18T17:33:17.826Z,96.90
2023-01-18T17:35:44.706Z,96.90
2023-01-18T17:38:22.316Z,96.80
2023-01-18T17:40:50.419Z,96.80
2023-01-18T17:43:32.130Z,96.90
2023-01-18T17:46:02.563Z,96.90
2023-01-18T17:48:29.710Z,96.80
2023-01-18T17:50:56.576Z,96.80
2023-01-18T17:53:23.437Z,96.80
2023-01-18T17:55:50.552Z,96.80
2023-01-18T17:58:17.273Z,96.90
2023-01-18T18:00:44.744Z,96.90
2023-01-18T18:03:11.513Z,96.90
2023-01-18T18:05:38.376Z,97.00
2023-01-18T18:08:05.409Z,96.90
2023-01-18T18:10:32.224Z,96.90
2023-01-18T18:12:59.831Z,96.90
2023-01-18T18:15:27.381Z,97.00
2023-01-18T18:17:54.095Z,96.90
2023-01-18T18:20:22.745Z,97.00
2023-01-18T18:22:49.751Z,97.00
2023-01-18T18:25:16.468Z,96.90
2023-01-18T18:27:46.391Z,96.90
2023-01-18T18:30:14.149Z,97.00
2023-01-18T18:32:40.937Z,96.90
2023-01-18T18:35:23.241Z,97.00
2023-01-18T18:37:51.743Z,96.90
2023-01-18T18:40:19.001Z,96.90
2023-01-18T18:42:56.387Z,96.90
2023-01-18T18:45:27.856Z,96.90
2023-01-18T18:47:54.558Z,96.90
2023-01-18T18:50:21.383Z,96.90
2023-01-18T18:52:48.179Z,97.00
2023-01-18T18:55:14.986Z,96.90
2023-01-18T18:57:41.795Z,96.90
2023-01-18T19:00:08.842Z,96.80
2023-01-18T19:02:35.771Z,97.00
2023-01-18T19:05:02.626Z,96.90
2023-01-18T19:07:29.375Z,97.00
2023-01-18T19:09:56.261Z,96.90
2023-01-18T19:12:23.018Z,96.90
2023-01-18T19:14:49.875Z,97.00
2023-01-18T19:17:29.053Z,96.90
2023-01-18T19:19:57.048Z,97.00
2023-01-18T19:22:23.992Z,97.00
2023-01-18T19:24:50.729Z,96.90
2023-01-18T19:27:17.573Z,97.00
2023-01-18T19:29:44.456Z,97.00
2023-01-18T19:32:11.178Z,96.90
2023-01-18T19:34:38.717Z,97.00
2023-01-18T19:37:05.701Z,97.00
2023-01-18T19:39:35.332Z,96.90
2023-01-18T19:42:02.843Z,97.00
2023-01-18T19:44:29.569Z,97.00
2023-01-18T19:46:57.111Z,97.10
2023-01-18T19:49:25.837Z,97.10
2023-01-18T19:51:53.024Z,97.20
2023-01-18T19:54:20.160Z,97.20
2023-01-18T19:56:46.955Z,97.30
2023-01-18T19:59:15.146Z,97.30
2023-01-18T20:01:42.053Z,97.10
2023-01-18T20:04:10.246Z,97.00
2023-01-18T20:06:40.088Z,97.00
2023-01-18T20:09:18.511Z,97.00
2023-01-18T20:11:46.225Z,96.90
2023-01-18T20:14:13.155Z,97.00
2023-01-18T20:16:40.310Z,97.20
2023-01-18T20:19:07.376Z,97.20
2023-01-18T20:21:34.209Z,97.10
2023-01-18T20:24:01.099Z,97.00
2023-01-18T20:26:36.439Z,96.90
2023-01-18T20:29:06.904Z,96.90
2023-01-18T20:31:37.609Z,96.80
2023-01-18T20:34:04.962Z,96.90
2023-01-18T20:36:31.994Z,96.90
2023-01-18T20:38:58.838Z,96.90
2023-01-18T20:41:25.632Z,96.90
2023-01-18T20:43:52.642Z,97.00
2023-01-18T20:46:19.692Z,96.90
2023-01-18T20:48:46.514Z,96.90
2023-01-18T20:51:13.621Z,97.00
2023-01-18T20:53:40.479Z,97.10
2023-01-18T20:56:17.105Z,97.10
2023-01-18T20:58:54.036Z,97.00
2023-01-18T21:01:20.927Z,97.00
2023-01-18T21:03:52.355Z,97.00
2023-01-18T21:06:19.321Z,96.90
2023-01-18T21:08:46.095Z,96.90
2023-01-18T21:11:13.859Z,96.90
2023-01-18T21:13:40.597Z,96.90
2023-01-18T21:16:07.415Z,96.90
2023-01-18T21:18:34.475Z,96.90
2023-01-18T21:21:01.309Z,96.90
2023-01-18T21:23:28.129Z,97.00
2023-01-18T21:25:56.313Z,97.00
2023-01-18T21:28:23.353Z,97.00
2023-01-18T21:30:51.047Z,97.00
2023-01-18T21:33:18.464Z,97.00
2023-01-18T21:35:45.594Z,97.10
2023-01-18T21:38:12.577Z,97.10
2023-01-18T21:40:39.471Z,97.10
2023-01-18T21:43:24.802Z,97.10
2023-01-18T21:45:57.527Z,97.00
2023-01-18T21:48:24.843Z,97.10
2023-01-18T21:51:10.229Z,97.00
2023-01-18T21:53:55.468Z,97.00
2023-01-18T21:56:22.295Z,97.00
2023-01-18T21:58:55.227Z,97.00
2023-01-18T22:01:23.745Z,96.90
2023-01-18T22:04:09.440Z,97.10
2023-01-18T22:06:36.404Z,97.00
2023-01-18T22:09:03.969Z,97.00
2023-01-18T22:11:30.943Z,97.00
2023-01-18T22:13:57.913Z,96.90
2023-01-18T22:16:30.057Z,96.90
2023-01-18T22:18:57.809Z,97.00
2023-01-18T22:21:25.438Z,96.90
2023-01-18T22:23:52.759Z,97.00
2023-01-18T22:26:23.381Z,97.00
2023-01-18T22:28:50.237Z,97.00
2023-01-18T22:31:17.135Z,97.00
2023-01-18T22:33:45.610Z,97.20
2023-01-18T22:36:13.010Z,97.20
2023-01-18T22:38:39.778Z,97.10
2023-01-18T22:41:06.697Z,97.10
2023-01-18T22:43:34.229Z,97.00
2023-01-18T22:46:01.012Z,97.10
2023-01-18T22:48:27.752Z,97.00
2023-01-18T22:50:55.115Z,97.00
2023-01-18T22:53:22.186Z,97.00
2023-01-18T22:55:49.713Z,97.00
2023-01-18T22:58:16.855Z,97.00
2023-01-18T23:00:44.282Z,97.00
2023-01-18T23:03:11.187Z,97.00
2023-01-18T23:05:37.969Z,97.00
2023-01-18T23:08:05.765Z,96.90
2023-01-18T23:10:33.112Z,96.90
2023-01-18T23:12:59.866Z,97.00
2023-01-18T23:15:45.576Z,97.00
2023-01-18T23:18:12.370Z,97.00
2023-01-18T23:20:39.129Z,97.10
2023-01-18T23:23:05.867Z,97.20
2023-01-18T23:25:33.633Z,97.10
2023-01-18T23:28:03.343Z,97.10
2023-01-18T23:30:30.959Z,97.30
2023-01-18T23:32:57.719Z,97.20
2023-01-18T23:35:24.754Z,97.10
2023-01-18T23:37:51.631Z,97.10
2023-01-18T23:40:37.039Z,97.10
2023-01-18T23:43:22.198Z,97.10
2023-01-18T23:46:07.426Z,97.10
2023-01-18T23:48:52.668Z,97.00
2023-01-18T23:51:38.008Z,97.00
2023-01-18T23:54:16.951Z,97.00
2023-01-18T23:56:44.263Z,97.00
2023-01-18T23:59:11.188Z,97.00
